createdAt,value
2023-04-19T00:00:57.873Z,24.38
2023-04-19T00:01:57.954Z,24.36
2023-04-19T00:02:58.157Z,24.34
2023-04-19T00:03:58.197Z,24.36
2023-04-19T00:04:58.199Z,24.36
2023-04-19T00:05:58.149Z,24.35
2023-04-19T00:06:58.291Z,24.36
2023-04-19T00:07:58.285Z,24.38
2023-04-19T00:08:58.355Z,24.36
2023-04-19T00:09:58.410Z,24.36
2023-04-19T00:10:58.489Z,24.38
2023-04-19T00:11:58.543Z,24.35
2023-04-19T00:12:58.603Z,24.42
2023-04-19T00:13:58.691Z,24.42
2023-04-19T00:14:58.761Z,24.42
2023-04-19T00:15:58.840Z,24.42
2023-04-19T00:16:58.966Z,24.45
2023-04-19T00:17:59.024Z,24.39
2023-04-19T00:18:59.018Z,24.38
2023-04-19T00:19:59.088Z,24.39
2023-04-19T00:20:59.152Z,24.44
2023-04-19T00:21:59.238Z,24.42
2023-04-19T00:22:59.344Z,24.42
2023-04-19T00:23:59.342Z,24.39
2023-04-19T00:24:59.401Z,24.46
2023-04-19T00:25:59.496Z,24.43
2023-04-19T00:26:59.549Z,24.41
2023-04-19T00:27:59.632Z,24.45
2023-04-19T00:28:59.702Z,24.41
2023-04-19T00:29:59.754Z,24.39
2023-04-19T00:30:59.881Z,24.45
2023-04-19T00:31:59.917Z,24.45
2023-04-19T00:33:00.030Z,24.44
2023-04-19T00:34:00.049Z,24.44
2023-04-19T00:35:00.125Z,24.44
2023-04-19T00:36:00.176Z,24.41
2023-04-19T00:37:00.270Z,24.41
2023-04-19T00:38:00.321Z,24.41
2023-04-19T00:39:00.388Z,24.38
2023-04-19T00:40:00.399Z,24.46
2023-04-19T00:41:00.397Z,24.44
2023-04-19T00:42:00.419Z,24.42
2023-04-19T00:43:01.179Z,24.46
2023-04-19T00:44:00.420Z,24.45
2023-04-19T00:45:00.433Z,24.42
2023-04-19T00:46:00.481Z,24.48
2023-04-19T00:47:00.462Z,24.42
2023-04-19T00:48:00.514Z,24.45
2023-04-19T00:49:00.485Z,24.45
2023-04-19T00:50:00.575Z,24.44
2023-04-19T00:51:00.568Z,24.48
2023-04-19T00:52:00.636Z,24.44
2023-04-19T00:53:00.699Z,24.45
2023-04-19T00:54:00.815Z,24.49
2023-04-19T00:55:00.855Z,24.49
2023-04-19T00:56:00.934Z,24.46
2023-04-19T00:57:00.997Z,24.45
2023-04-19T00:58:01.105Z,24.44
2023-04-19T00:59:01.167Z,24.46
2023-04-19T01:00:01.233Z,24.48
2023-04-19T01:01:01.421Z,24.45
2023-04-19T01:02:01.758Z,24.45
2023-04-19T01:03:01.595Z,24.48
2023-04-19T01:04:01.728Z,24.49
2023-04-19T01:05:01.579Z,24.49
2023-04-19T01:06:01.684Z,24.51
2023-04-19T01:07:01.762Z,24.46
2023-04-19T01:08:01.931Z,24.46
2023-04-19T01:09:01.943Z,24.52
2023-04-19T01:10:02.088Z,24.49
2023-04-19T01:11:02.031Z,24.49
2023-04-19T01:12:02.151Z,24.52
2023-04-19T01:13:02.179Z,24.51
2023-04-19T01:14:02.311Z,24.49
2023-04-19T01:15:02.340Z,24.51
2023-04-19T01:16:02.443Z,24.52
2023-04-19T01:17:02.472Z,24.51
2023-04-19T01:18:02.594Z,24.48
2023-04-19T01:19:02.655Z,24.49
2023-04-19T01:20:02.692Z,24.52
2023-04-19T01:21:02.876Z,24.49
2023-04-19T01:22:02.828Z,24.56
2023-04-19T01:23:02.928Z,24.53
2023-04-19T01:24:03.028Z,24.58
2023-04-19T01:25:03.070Z,24.52
2023-04-19T01:26:03.145Z,24.53
2023-04-19T01:27:03.219Z,24.49
2023-04-19T01:28:03.288Z,24.51
2023-04-19T01:29:03.366Z,24.52
2023-04-19T01:30:03.447Z,24.55
2023-04-19T01:31:03.552Z,24.49
2023-04-19T01:32:03.582Z,24.52
2023-04-19T01:33:03.722Z,24.52
2023-04-19T01:34:03.737Z,24.58
2023-04-19T01:35:03.737Z,24.59
2023-04-19T01:36:03.743Z,24.58
2023-04-19T01:37:03.776Z,24.56
2023-04-19T01:38:03.808Z,24.53
2023-04-19T01:39:03.784Z,24.58
2023-04-19T01:40:03.812Z,24.55
2023-04-19T01:41:03.800Z,24.55
2023-04-19T01:42:03.811Z,24.54
2023-04-19T01:43:03.820Z,24.52
2023-04-19T01:44:03.853Z,24.51
2023-04-19T01:45:03.901Z,24.55
2023-04-19T01:46:03.962Z,24.52
2023-04-19T01:47:04.162Z,24.55
2023-04-19T01:48:04.182Z,24.58
2023-04-19T01:49:04.206Z,24.58
2023-04-19T01:50:04.267Z,24.52
2023-04-19T01:51:04.348Z,24.53
2023-04-19T01:52:04.458Z,24.59
2023-04-19T01:53:04.482Z,24.52
2023-04-19T01:54:04.605Z,24.58
2023-04-19T01:55:04.702Z,24.58
2023-04-19T01:56:04.767Z,24.55
2023-04-19T01:57:04.806Z,24.51
2023-04-19T01:58:04.874Z,24.55
2023-04-19T01:59:04.940Z,24.59
2023-04-19T02:00:05.038Z,24.58
2023-04-19T02:01:05.131Z,24.56
2023-04-19T02:02:05.223Z,24.56
2023-04-19T02:03:05.350Z,24.56
2023-04-19T02:04:05.404Z,24.55
2023-04-19T02:05:05.359Z,24.61
2023-04-19T02:06:05.454Z,24.59
2023-04-19T02:07:05.537Z,24.65
2023-04-19T02:08:05.578Z,24.56
2023-04-19T02:09:05.684Z,24.62
2023-04-19T02:10:05.778Z,24.59
2023-04-19T02:11:05.798Z,24.60
2023-04-19T02:12:05.879Z,24.60
2023-04-19T02:13:05.937Z,24.59
2023-04-19T02:14:06.019Z,24.59
2023-04-19T02:15:06.092Z,24.56
2023-04-19T02:16:06.259Z,24.59
2023-04-19T02:17:06.221Z,24.59
2023-04-19T02:18:06.356Z,24.63
2023-04-19T02:19:06.396Z,24.60
2023-04-19T02:20:06.477Z,24.62
2023-04-19T02:21:06.540Z,24.58
2023-04-19T02:22:06.616Z,24.56
2023-04-19T02:23:06.680Z,24.63
2023-04-19T02:24:06.753Z,24.63
2023-04-19T02:25:06.820Z,24.59
2023-04-19T02:26:06.890Z,24.60
2023-04-19T02:27:07.000Z,24.60
2023-04-19T02:28:07.102Z,24.63
2023-04-19T02:29:07.239Z,24.62
2023-04-19T02:30:07.192Z,24.58
2023-04-19T02:31:07.106Z,24.63
2023-04-19T02:32:07.171Z,24.62
2023-04-19T02:33:07.172Z,24.63
2023-04-19T02:34:07.149Z,24.60
2023-04-19T02:35:07.161Z,24.62
2023-04-19T02:36:07.155Z,24.59
2023-04-19T02:37:07.166Z,24.56
2023-04-19T02:38:07.231Z,24.60
2023-04-19T02:39:07.300Z,24.63
2023-04-19T02:40:07.426Z,24.62
2023-04-19T02:41:07.462Z,24.63
2023-04-19T02:42:07.535Z,24.60
2023-04-19T02:43:07.628Z,24.53
2023-04-19T02:44:07.703Z,24.51
2023-04-19T02:45:07.833Z,24.51
2023-04-19T02:46:07.906Z,24.52
2023-04-19T02:47:07.986Z,24.53
2023-04-19T02:48:08.052Z,24.56
2023-04-19T02:49:08.092Z,24.54
2023-04-19T02:50:08.128Z,24.54
2023-04-19T02:51:08.165Z,24.49
2023-04-19T02:52:08.192Z,24.51
2023-04-19T02:53:08.237Z,24.55
2023-04-19T02:54:08.294Z,24.51
2023-04-19T02:55:08.307Z,24.46
2023-04-19T02:56:08.319Z,24.37
2023-04-19T02:57:08.382Z,24.33
2023-04-19T02:58:08.420Z,24.40
2023-04-19T02:59:08.472Z,24.38
2023-04-19T03:00:08.514Z,24.35
2023-04-19T03:01:08.545Z,24.32
2023-04-19T03:02:08.633Z,24.30
2023-04-19T03:03:08.697Z,24.29
2023-04-19T03:04:08.661Z,24.33
2023-04-19T03:05:08.651Z,24.33
2023-04-19T03:06:08.699Z,24.36
2023-04-19T03:07:08.745Z,24.28
2023-04-19T03:08:08.735Z,24.29
2023-04-19T03:09:08.776Z,24.33
2023-04-19T03:10:08.812Z,24.31
2023-04-19T03:11:08.845Z,24.39
2023-04-19T03:12:08.886Z,24.32
2023-04-19T03:13:08.917Z,24.35
2023-04-19T03:14:08.987Z,24.43
2023-04-19T03:15:08.981Z,24.38
2023-04-19T03:16:09.029Z,24.37
2023-04-19T03:17:09.018Z,24.40
2023-04-19T03:18:09.058Z,24.41
2023-04-19T03:19:09.124Z,24.41
2023-04-19T03:20:09.058Z,24.53
2023-04-19T03:21:09.095Z,24.56
2023-04-19T03:22:09.093Z,24.55
2023-04-19T03:23:09.100Z,24.61
2023-04-19T03:24:09.148Z,24.62
2023-04-19T03:25:09.132Z,24.58
2023-04-19T03:26:09.131Z,24.60
2023-04-19T03:27:09.167Z,24.60
2023-04-19T03:28:09.166Z,24.59
2023-04-19T03:29:09.204Z,24.63
2023-04-19T03:30:09.208Z,24.67
2023-04-19T03:31:09.222Z,24.66
2023-04-19T03:32:09.233Z,24.61
2023-04-19T03:33:09.371Z,24.68
2023-04-19T03:34:09.244Z,24.74
2023-04-19T03:35:09.275Z,24.71
2023-04-19T03:36:09.285Z,24.68
2023-04-19T03:37:09.292Z,24.79
2023-04-19T03:38:09.316Z,24.72
2023-04-19T03:39:09.343Z,24.77
2023-04-19T03:40:09.321Z,24.77
2023-04-19T03:41:09.354Z,24.84
2023-04-19T03:42:09.361Z,24.88
2023-04-19T03:43:09.380Z,24.85
2023-04-19T03:44:09.395Z,24.87
2023-04-19T03:45:09.404Z,24.94
2023-04-19T03:46:09.414Z,24.97
2023-04-19T03:47:09.416Z,24.97
2023-04-19T03:48:09.506Z,24.98
2023-04-19T03:49:09.436Z,24.91
2023-04-19T03:50:09.454Z,24.97
2023-04-19T03:51:09.480Z,24.98
2023-04-19T03:52:09.509Z,24.94
2023-04-19T03:53:09.475Z,24.98
2023-04-19T03:54:09.520Z,25.08
2023-04-19T03:55:09.519Z,25.07
2023-04-19T03:56:09.524Z,25.04
2023-04-19T03:57:09.526Z,25.03
2023-04-19T03:58:09.563Z,25.11
2023-04-19T03:59:09.605Z,25.07
2023-04-19T04:00:09.583Z,25.14
2023-04-19T04:01:09.590Z,25.21
2023-04-19T04:02:09.679Z,25.17
2023-04-19T04:03:09.865Z,25.10
2023-04-19T04:04:09.820Z,25.03
2023-04-19T04:05:09.823Z,25.10
2023-04-19T04:06:09.664Z,25.19
2023-04-19T04:07:09.672Z,25.19
2023-04-19T04:08:09.670Z,25.12
2023-04-19T04:09:09.705Z,25.12
2023-04-19T04:10:09.717Z,25.18
2023-04-19T04:11:09.732Z,25.15
2023-04-19T04:12:09.749Z,25.14
2023-04-19T04:13:09.780Z,25.14
2023-04-19T04:14:09.778Z,25.16
2023-04-19T04:15:09.793Z,25.15
2023-04-19T04:16:09.851Z,25.16
2023-04-19T04:17:09.818Z,25.16
2023-04-19T04:18:09.855Z,25.22
2023-04-19T04:19:09.853Z,25.09
2023-04-19T04:20:09.856Z,24.99
2023-04-19T04:21:09.894Z,24.73
2023-04-19T04:22:09.904Z,24.71
2023-04-19T04:23:09.892Z,24.82
2023-04-19T04:24:09.929Z,24.69
2023-04-19T04:25:09.931Z,24.71
2023-04-19T04:26:09.953Z,24.67
2023-04-19T04:27:09.947Z,24.66
2023-04-19T04:28:09.965Z,24.64
2023-04-19T04:29:09.973Z,24.70
2023-04-19T04:30:09.998Z,24.67
2023-04-19T04:31:10.027Z,24.64
2023-04-19T04:32:10.212Z,24.69
2023-04-19T04:33:10.025Z,24.73
2023-04-19T04:34:10.042Z,24.77
2023-04-19T04:35:10.062Z,24.77
2023-04-19T04:36:10.056Z,24.76
2023-04-19T04:37:10.078Z,24.76
2023-04-19T04:38:21.537Z,24.79
2023-04-19T04:39:11.199Z,24.84
2023-04-19T04:40:10.105Z,24.74
2023-04-19T04:41:10.103Z,24.85
2023-04-19T04:42:10.142Z,24.81
2023-04-19T04:43:10.159Z,24.85
2023-04-19T04:44:12.942Z,24.90
2023-04-19T04:45:10.163Z,24.86
2023-04-19T04:46:10.242Z,24.94
2023-04-19T04:47:10.199Z,24.87
2023-04-19T04:48:10.195Z,24.89
2023-04-19T04:49:10.233Z,24.86
2023-04-19T04:50:10.227Z,24.94
2023-04-19T04:51:10.229Z,24.98
2023-04-19T04:52:10.248Z,24.98
2023-04-19T04:53:12.290Z,25.00
2023-04-19T04:54:10.470Z,25.03
2023-04-19T04:55:10.485Z,25.09
2023-04-19T04:56:10.522Z,25.07
2023-04-19T04:57:10.533Z,25.10
2023-04-19T04:58:10.555Z,25.12
2023-04-19T04:59:10.578Z,25.10
2023-04-19T05:00:10.602Z,25.08
2023-04-19T05:01:10.660Z,25.18
2023-04-19T05:02:10.723Z,25.15
2023-04-19T05:03:10.721Z,25.25
2023-04-19T05:04:10.758Z,25.27
2023-04-19T05:05:10.720Z,25.23
2023-04-19T05:06:10.718Z,25.27
2023-04-19T05:07:10.750Z,25.28
2023-04-19T05:08:10.776Z,25.28
2023-04-19T05:09:10.785Z,25.31
2023-04-19T05:10:10.824Z,25.20
2023-04-19T05:11:10.836Z,25.23
2023-04-19T05:12:10.852Z,25.21
2023-04-19T05:13:10.924Z,25.27
2023-04-19T05:14:10.890Z,25.31
2023-04-19T05:15:10.909Z,25.31
2023-04-19T05:16:10.975Z,25.30
2023-04-19T05:17:10.949Z,25.25
2023-04-19T05:18:10.979Z,25.24
2023-04-19T05:19:10.981Z,25.24
2023-04-19T05:20:10.999Z,25.24
2023-04-19T05:21:11.004Z,25.19
2023-04-19T05:22:11.028Z,25.25
2023-04-19T05:23:11.062Z,25.16
2023-04-19T05:24:11.078Z,25.22
2023-04-19T05:25:11.099Z,25.17
2023-04-19T05:26:11.146Z,25.25
2023-04-19T05:27:11.125Z,25.32
2023-04-19T05:28:11.154Z,25.31
2023-04-19T05:29:11.172Z,25.26
2023-04-19T05:30:11.205Z,25.39
2023-04-19T05:31:11.242Z,25.36
2023-04-19T05:32:11.229Z,25.36
2023-04-19T05:33:11.313Z,25.32
2023-04-19T05:34:11.295Z,25.36
2023-04-19T05:35:11.287Z,25.29
2023-04-19T05:36:11.332Z,25.31
2023-04-19T05:37:11.334Z,25.31
2023-04-19T05:38:11.339Z,25.28
2023-04-19T05:39:12.318Z,25.25
2023-04-19T05:40:11.386Z,25.25
2023-04-19T05:41:11.394Z,25.29
2023-04-19T05:42:11.626Z,25.26
2023-04-19T05:43:14.317Z,25.28
2023-04-19T05:44:11.461Z,25.28
2023-04-19T05:45:11.473Z,25.22
2023-04-19T05:46:11.625Z,25.28
2023-04-19T05:47:11.546Z,25.22
2023-04-19T05:48:11.825Z,26.84
2023-04-19T05:49:11.565Z,25.93
2023-04-19T05:50:11.613Z,25.33
2023-04-19T05:51:12.356Z,25.19
2023-04-19T05:52:11.632Z,25.18
2023-04-19T05:53:11.678Z,25.11
2023-04-19T05:54:11.680Z,25.14
2023-04-19T05:55:11.730Z,25.09
2023-04-19T05:56:11.757Z,25.09
2023-04-19T05:57:11.799Z,25.04
2023-04-19T05:58:11.759Z,25.04
2023-04-19T05:59:11.830Z,25.04
2023-04-19T06:00:11.827Z,25.08
2023-04-19T06:01:11.875Z,24.98
2023-04-19T06:02:11.958Z,25.00
2023-04-19T06:03:12.024Z,24.96
2023-04-19T06:04:12.018Z,24.90
2023-04-19T06:05:12.090Z,24.91
2023-04-19T06:06:11.990Z,24.83
2023-04-19T06:07:26.461Z,24.86
2023-04-19T06:08:12.978Z,24.77
2023-04-19T06:09:12.057Z,24.76
2023-04-19T06:10:12.039Z,24.78
2023-04-19T06:11:23.386Z,24.72
2023-04-19T06:12:13.062Z,24.72
2023-04-19T06:13:12.110Z,24.68
2023-04-19T06:14:12.109Z,24.66
2023-04-19T06:15:12.147Z,24.64
2023-04-19T06:16:12.150Z,24.60
2023-04-19T06:17:12.220Z,24.58
2023-04-19T06:18:19.537Z,24.56
2023-04-19T06:19:13.210Z,24.62
2023-04-19T06:20:12.235Z,24.61
2023-04-19T06:21:12.243Z,24.60
2023-04-19T06:22:12.470Z,24.60
2023-04-19T06:23:12.279Z,24.53
2023-04-19T06:24:12.346Z,24.50
2023-04-19T06:25:13.357Z,24.54
2023-04-19T06:26:12.403Z,24.46
2023-04-19T06:27:12.369Z,24.53
2023-04-19T06:28:12.407Z,24.55
2023-04-19T06:29:12.434Z,24.53
2023-04-19T06:30:13.912Z,24.52
2023-04-19T06:31:12.539Z,24.58
2023-04-19T06:32:12.480Z,24.55
2023-04-19T06:33:12.506Z,24.55
2023-04-19T06:34:12.526Z,24.52
2023-04-19T06:35:12.560Z,24.52
2023-04-19T06:36:12.568Z,24.48
2023-04-19T06:37:12.620Z,24.48
2023-04-19T06:38:12.667Z,24.54
2023-04-19T06:39:12.692Z,24.57
2023-04-19T06:40:12.752Z,24.58
2023-04-19T06:41:12.833Z,24.51
2023-04-19T06:42:12.885Z,24.54
2023-04-19T06:43:12.909Z,24.52
2023-04-19T06:44:13.026Z,24.55
2023-04-19T06:45:13.019Z,24.54
2023-04-19T06:46:13.119Z,24.56
2023-04-19T06:47:13.205Z,24.63
2023-04-19T06:48:13.261Z,24.53
2023-04-19T06:49:13.231Z,24.58
2023-04-19T06:50:13.302Z,24.61
2023-04-19T06:51:13.377Z,24.59
2023-04-19T06:52:13.399Z,24.57
2023-04-19T06:53:13.430Z,24.58
2023-04-19T06:54:13.487Z,24.55
2023-04-19T06:55:13.549Z,24.58
2023-04-19T06:56:13.590Z,24.54
2023-04-19T06:57:13.652Z,24.58
2023-04-19T06:58:13.703Z,24.57
2023-04-19T06:59:13.793Z,24.55
2023-04-19T07:00:13.890Z,24.54
2023-04-19T07:01:13.872Z,24.53
2023-04-19T07:02:13.975Z,24.50
2023-04-19T07:03:14.136Z,24.50
2023-04-19T07:04:14.180Z,24.48
2023-04-19T07:05:14.003Z,24.45
2023-04-19T07:06:13.996Z,24.42
2023-04-19T07:07:14.002Z,24.38
2023-04-19T07:08:14.076Z,24.40
2023-04-19T07:09:14.076Z,24.43
2023-04-19T07:10:14.089Z,24.42
2023-04-19T07:11:14.093Z,24.39
2023-04-19T07:12:14.121Z,24.36
2023-04-19T07:13:14.255Z,24.38
2023-04-19T07:14:15.200Z,24.35
2023-04-19T07:15:14.211Z,24.39
2023-04-19T07:16:14.249Z,24.35
2023-04-19T07:17:14.225Z,24.35
2023-04-19T07:18:14.254Z,24.38
2023-04-19T07:19:14.387Z,24.34
2023-04-19T07:20:14.311Z,24.33
2023-04-19T07:21:14.339Z,24.27
2023-04-19T07:22:15.200Z,24.32
2023-04-19T07:23:14.397Z,24.28
2023-04-19T07:24:14.676Z,24.30
2023-04-19T07:25:15.045Z,24.30
2023-04-19T07:26:14.483Z,24.29
2023-04-19T07:27:14.873Z,24.39
2023-04-19T07:28:14.501Z,24.40
2023-04-19T07:29:14.553Z,24.49
2023-04-19T07:30:14.574Z,24.58
2023-04-19T07:31:14.571Z,24.51
2023-04-19T07:32:14.617Z,24.54
2023-04-19T07:33:14.720Z,24.57
2023-04-19T07:34:14.912Z,24.63
2023-04-19T07:35:14.720Z,24.78
2023-04-19T07:36:14.683Z,24.75
2023-04-19T07:37:14.698Z,24.74
2023-04-19T07:38:14.723Z,24.72
2023-04-19T07:39:14.737Z,24.80
2023-04-19T07:40:14.799Z,24.86
2023-04-19T07:41:14.816Z,24.89
2023-04-19T07:42:14.869Z,24.86
2023-04-19T07:43:14.836Z,24.88
2023-04-19T07:44:15.235Z,24.87
2023-04-19T07:45:14.885Z,24.83
2023-04-19T07:46:14.999Z,24.83
2023-04-19T07:47:14.987Z,24.85
2023-04-19T07:48:14.971Z,24.82
2023-04-19T07:49:15.017Z,24.81
2023-04-19T07:50:15.047Z,24.84
2023-04-19T07:51:15.014Z,24.81
2023-04-19T07:52:15.027Z,24.80
2023-04-19T07:53:15.053Z,24.77
2023-04-19T07:54:15.333Z,24.73
2023-04-19T07:55:15.062Z,24.79
2023-04-19T07:56:15.099Z,24.67
2023-04-19T07:57:15.116Z,24.71
2023-04-19T07:58:15.200Z,24.72
2023-04-19T07:59:15.205Z,24.69
2023-04-19T08:00:15.220Z,24.68
2023-04-19T08:01:15.188Z,24.65
2023-04-19T08:02:15.296Z,24.61
2023-04-19T08:03:15.408Z,24.67
2023-04-19T08:04:15.619Z,24.62
2023-04-19T08:05:15.363Z,24.60
2023-04-19T08:06:15.851Z,24.57
2023-04-19T08:07:15.491Z,24.56
2023-04-19T08:08:15.323Z,24.55
2023-04-19T08:09:15.323Z,24.59
2023-04-19T08:10:15.371Z,24.51
2023-04-19T08:11:15.334Z,24.50
2023-04-19T08:12:30.440Z,24.51
2023-04-19T08:13:16.425Z,24.52
2023-04-19T08:14:28.309Z,24.52
2023-04-19T08:16:48.191Z,24.49
2023-04-19T08:18:15.506Z,24.43
2023-04-19T08:19:15.481Z,24.42
2023-04-19T08:20:15.551Z,24.40
2023-04-19T08:21:15.522Z,24.42
2023-04-19T08:22:15.550Z,24.44
2023-04-19T08:23:23.961Z,24.39
2023-04-19T08:24:16.724Z,24.36
2023-04-19T08:25:15.604Z,24.39
2023-04-19T08:26:15.621Z,24.39
2023-04-19T08:27:15.787Z,24.35
2023-04-19T08:28:15.661Z,24.37
2023-04-19T08:29:15.928Z,24.30
2023-04-19T08:30:15.702Z,24.27
2023-04-19T08:31:15.713Z,24.25
2023-04-19T08:32:15.798Z,24.24
2023-04-19T08:33:16.064Z,24.22
2023-04-19T08:34:15.756Z,24.22
2023-04-19T08:35:15.893Z,24.23
2023-04-19T08:36:19.443Z,24.22
2023-04-19T08:37:16.789Z,24.19
2023-04-19T08:38:15.798Z,24.20
2023-04-19T08:39:28.972Z,24.13
2023-04-19T08:40:16.863Z,24.15
2023-04-19T08:41:15.838Z,24.16
2023-04-19T08:43:15.873Z,24.16
2023-04-19T08:44:17.802Z,24.16
2023-04-19T08:45:27.939Z,24.16
2023-04-19T08:46:17.078Z,24.18
2023-04-19T08:47:26.988Z,24.15
2023-04-19T08:48:17.123Z,24.13
2023-04-19T08:49:16.076Z,24.11
2023-04-19T08:50:31.122Z,24.07
2023-04-19T08:51:17.032Z,24.08
2023-04-19T08:52:16.053Z,23.97
2023-04-19T08:53:24.634Z,23.43
2023-04-19T08:54:20.016Z,23.81
2023-04-19T08:55:16.065Z,23.80
2023-04-19T08:56:24.375Z,24.14
2023-04-19T08:57:17.586Z,24.16
2023-04-19T08:58:28.630Z,24.39
2023-04-19T08:59:18.810Z,24.64
2023-04-19T09:00:16.254Z,24.67
2023-04-19T09:01:30.386Z,24.87
2023-04-19T09:02:17.519Z,24.95
2023-04-19T09:03:16.507Z,25.25
2023-04-19T09:05:16.648Z,25.62
2023-04-19T09:06:16.798Z,25.57
2023-04-19T09:07:17.471Z,25.74
2023-04-19T09:08:16.768Z,25.99
2023-04-19T09:09:33.114Z,26.29
2023-04-19T09:10:17.988Z,26.11
2023-04-19T09:11:17.046Z,26.29
2023-04-19T09:12:17.163Z,26.29
2023-04-19T09:13:17.571Z,26.39
2023-04-19T09:14:17.625Z,26.58
2023-04-19T09:15:17.450Z,26.59
2023-04-19T09:16:17.868Z,26.62
2023-04-19T09:17:17.772Z,26.46
2023-04-19T09:18:17.901Z,26.30
2023-04-19T09:19:24.290Z,26.23
2023-04-19T09:20:18.978Z,26.31
2023-04-19T09:21:18.040Z,26.42
2023-04-19T09:22:18.244Z,26.36
2023-04-19T09:23:18.131Z,26.09
2023-04-19T09:24:18.173Z,25.99
2023-04-19T09:25:41.439Z,25.84
2023-04-19T09:26:23.342Z,25.76
2023-04-19T09:27:20.884Z,25.75
2023-04-19T09:28:18.524Z,25.61
2023-04-19T09:29:18.867Z,25.52
2023-04-19T09:30:30.078Z,25.47
2023-04-19T09:31:38.963Z,25.37
2023-04-19T09:32:19.703Z,25.22
2023-04-19T09:33:19.032Z,24.77
2023-04-19T09:34:18.775Z,24.68
2023-04-19T09:35:18.773Z,24.58
2023-04-19T09:36:18.868Z,24.51
2023-04-19T09:37:33.036Z,24.60
2023-04-19T09:38:19.912Z,24.48
2023-04-19T09:39:18.957Z,24.54
2023-04-19T09:43:07.349Z,24.81
2023-04-19T09:44:15.574Z,24.77
2023-04-19T09:45:57.315Z,24.62
2023-04-19T09:46:57.372Z,24.53
2023-04-19T09:47:57.363Z,24.51
2023-04-19T09:48:57.632Z,24.44
2023-04-19T09:49:57.214Z,24.36
2023-04-19T09:51:01.929Z,24.31
2023-04-19T09:51:58.185Z,24.24
2023-04-19T09:52:57.184Z,24.24
2023-04-19T09:53:57.141Z,24.17
2023-04-19T09:54:57.105Z,24.12
2023-04-19T09:56:02.185Z,24.06
2023-04-19T09:57:00.113Z,24.03
2023-04-19T09:57:57.085Z,23.99
2023-04-19T09:59:20.041Z,24.03
2023-04-19T09:59:58.141Z,23.92
2023-04-19T10:01:57.278Z,23.90
2023-04-19T10:02:57.495Z,23.88
2023-04-19T10:03:59.218Z,23.84
2023-04-19T10:05:57.587Z,23.84
2023-04-19T10:07:19.424Z,23.83
2023-04-19T10:08:00.114Z,23.87
2023-04-19T10:08:57.100Z,23.79
2023-04-19T10:10:02.239Z,23.79
2023-04-19T10:10:59.155Z,23.81
2023-04-19T10:12:03.801Z,23.79
2023-04-19T10:13:11.543Z,23.75
2023-04-19T10:13:58.583Z,23.73
2023-04-19T10:14:56.950Z,23.77
2023-04-19T10:16:04.555Z,23.77
2023-04-19T10:17:01.134Z,23.71
2023-04-19T10:17:56.836Z,23.70
2023-04-19T10:18:56.779Z,23.72
2023-04-19T10:19:56.674Z,23.70
2023-04-19T10:20:56.639Z,23.67
2023-04-19T10:21:58.574Z,23.65
2023-04-19T10:22:56.594Z,23.66
2023-04-19T10:23:56.556Z,23.69
2023-04-19T10:24:56.541Z,23.62
2023-04-19T10:25:56.482Z,23.65
2023-04-19T10:26:59.029Z,23.64
2023-04-19T10:27:56.643Z,23.62
2023-04-19T10:28:56.689Z,23.65
2023-04-19T10:29:57.658Z,23.65
2023-04-19T10:30:56.721Z,23.64
2023-04-19T10:31:56.803Z,23.61
2023-04-19T10:32:56.886Z,23.61
2023-04-19T10:33:56.739Z,23.56
2023-04-19T10:34:56.744Z,23.63
2023-04-19T10:35:56.799Z,23.56
2023-04-19T10:36:56.790Z,23.59
2023-04-19T10:37:57.652Z,23.57
2023-04-19T10:38:56.777Z,23.56
2023-04-19T10:39:56.790Z,23.56
2023-04-19T10:40:56.814Z,23.51
2023-04-19T10:41:57.084Z,23.53
2023-04-19T10:42:56.850Z,23.49
2023-04-19T10:43:56.818Z,23.48
2023-04-19T10:44:56.805Z,23.51
2023-04-19T10:45:56.867Z,23.47
2023-04-19T10:46:56.821Z,23.45
2023-04-19T10:47:56.857Z,23.48
2023-04-19T10:48:56.840Z,23.43
2023-04-19T10:49:56.848Z,23.45
2023-04-19T10:50:56.820Z,23.40
2023-04-19T10:52:11.189Z,23.44
2023-04-19T10:52:56.755Z,23.40
2023-04-19T10:53:56.828Z,23.43
2023-04-19T10:54:56.733Z,23.37
2023-04-19T10:55:56.709Z,23.36
2023-04-19T10:56:56.665Z,23.39
2023-04-19T10:57:56.642Z,23.40
2023-04-19T10:58:56.532Z,23.38
2023-04-19T10:59:56.501Z,23.33
2023-04-19T11:00:56.496Z,23.38
2023-04-19T11:01:56.736Z,23.38
2023-04-19T11:02:56.518Z,23.35
2023-04-19T11:03:56.476Z,23.33
2023-04-19T11:04:56.313Z,23.32
2023-04-19T11:05:56.305Z,23.31
2023-04-19T11:06:56.247Z,23.36
2023-04-19T11:07:56.162Z,23.46
2023-04-19T11:08:56.104Z,23.45
2023-04-19T11:09:56.089Z,23.36
2023-04-19T11:10:56.068Z,23.39
2023-04-19T11:11:55.974Z,23.39
2023-04-19T11:12:56.003Z,23.39
2023-04-19T11:13:55.906Z,23.42
2023-04-19T11:14:55.891Z,23.36
2023-04-19T11:15:55.880Z,23.35
2023-04-19T11:16:55.991Z,23.32
2023-04-19T11:18:11.277Z,23.35
2023-04-19T11:18:56.669Z,23.31
2023-04-19T11:19:55.656Z,23.23
2023-04-19T11:20:55.575Z,23.31
2023-04-19T11:21:55.557Z,23.28
2023-04-19T11:22:55.588Z,23.28
2023-04-19T11:23:55.472Z,23.25
2023-04-19T11:24:55.376Z,23.31
2023-04-19T11:25:55.320Z,23.27
2023-04-19T11:26:55.650Z,23.25
2023-04-19T11:27:55.197Z,23.21
2023-04-19T11:28:55.158Z,23.21
2023-04-19T11:29:55.185Z,23.20
2023-04-19T11:30:55.166Z,23.20
2023-04-19T11:31:55.228Z,23.20
2023-04-19T11:32:55.153Z,23.18
2023-04-19T11:33:55.267Z,23.17
2023-04-19T11:34:55.164Z,23.15
2023-04-19T11:35:55.098Z,23.12
2023-04-19T11:36:55.129Z,23.12
2023-04-19T11:37:55.104Z,23.12
2023-04-19T11:38:55.160Z,23.14
2023-04-19T11:39:55.059Z,23.14
2023-04-19T11:40:54.957Z,23.10
2023-04-19T11:41:54.937Z,23.08
2023-04-19T11:42:54.883Z,23.11
2023-04-19T11:43:54.805Z,23.08
2023-04-19T11:44:54.814Z,23.11
2023-04-19T11:45:54.735Z,23.10
2023-04-19T11:46:55.176Z,23.10
2023-04-19T11:47:54.623Z,23.10
2023-04-19T11:48:54.531Z,23.11
2023-04-19T11:49:54.533Z,23.07
2023-04-19T11:50:54.560Z,23.05
2023-04-19T11:51:54.606Z,23.11
2023-04-19T11:52:54.566Z,23.10
2023-04-19T11:53:54.581Z,23.11
2023-04-19T11:54:54.519Z,23.07
2023-04-19T11:55:54.593Z,23.10
2023-04-19T11:56:54.643Z,23.08
2023-04-19T11:57:54.512Z,23.07
2023-04-19T11:58:54.561Z,23.08
2023-04-19T11:59:54.518Z,23.05
2023-04-19T12:00:55.542Z,23.00
2023-04-19T12:01:54.553Z,23.02
2023-04-19T12:02:54.747Z,23.02
2023-04-19T12:03:54.731Z,23.01
2023-04-19T12:04:54.671Z,22.98
2023-04-19T12:05:54.575Z,22.96
2023-04-19T12:06:54.525Z,22.99
2023-04-19T12:07:54.491Z,22.99
2023-04-19T12:08:54.503Z,22.96
2023-04-19T12:09:54.500Z,23.02
2023-04-19T12:10:54.517Z,22.95
2023-04-19T12:11:54.563Z,22.95
2023-04-19T12:12:54.455Z,22.92
2023-04-19T12:13:54.577Z,22.94
2023-04-19T12:14:55.053Z,22.92
2023-04-19T12:15:54.445Z,22.89
2023-04-19T12:16:56.218Z,22.92
2023-04-19T12:17:57.384Z,22.92
2023-04-19T12:18:54.396Z,22.98
2023-04-19T12:19:54.342Z,22.91
2023-04-19T12:20:54.364Z,22.92
2023-04-19T12:21:54.247Z,22.94
2023-04-19T12:22:54.193Z,22.91
2023-04-19T12:23:54.151Z,22.89
2023-04-19T12:24:54.247Z,22.91
2023-04-19T12:25:54.035Z,22.94
2023-04-19T12:27:04.243Z,22.85
2023-04-19T12:27:55.154Z,22.88
2023-04-19T12:28:53.948Z,22.88
2023-04-19T12:29:53.860Z,22.97
2023-04-19T12:30:53.794Z,22.92
2023-04-19T12:31:53.946Z,23.00
2023-04-19T12:32:53.728Z,22.97
2023-04-19T12:33:53.703Z,22.99
2023-04-19T12:34:53.587Z,23.02
2023-04-19T12:35:53.533Z,23.05
2023-04-19T12:36:53.519Z,23.02
2023-04-19T12:37:53.435Z,23.02
2023-04-19T12:38:53.397Z,23.05
2023-04-19T12:39:55.921Z,23.03
2023-04-19T12:40:53.272Z,23.05
2023-04-19T12:41:53.234Z,22.99
2023-04-19T12:42:53.308Z,23.02
2023-04-19T12:43:53.240Z,23.05
2023-04-19T12:44:53.087Z,23.03
2023-04-19T12:45:53.133Z,23.06
2023-04-19T12:46:53.003Z,23.00
2023-04-19T12:47:53.000Z,23.06
2023-04-19T12:48:52.911Z,23.00
2023-04-19T12:49:52.840Z,23.07
2023-04-19T12:50:52.802Z,23.06
2023-04-19T12:51:54.187Z,23.08
2023-04-19T12:52:52.742Z,23.08
2023-04-19T12:53:52.671Z,23.11
2023-04-19T12:54:52.664Z,23.07
2023-04-19T12:55:52.544Z,23.09
2023-04-19T12:56:52.514Z,23.08
2023-04-19T12:57:52.434Z,23.10
2023-04-19T12:58:52.393Z,23.08
2023-04-19T12:59:52.369Z,23.14
2023-04-19T13:00:52.270Z,23.14
2023-04-19T13:01:52.287Z,23.13
2023-04-19T13:02:52.421Z,23.11